createdAt,value
2017-07-23T00:00:13.656Z,18.76
2017-07-23T00:01:01.651Z,18.70
2017-07-23T00:01:55.910Z,18.67
2017-07-23T00:02:50.788Z,18.71
2017-07-23T00:03:44.868Z,18.69
2017-07-23T00:04:39.830Z,18.66
2017-07-23T00:05:39.892Z,18.67
2017-07-23T00:06:28.920Z,18.62
2017-07-23T00:07:29.014Z,18.59
2017-07-23T00:08:18.065Z,18.56
2017-07-23T00:09:07.017Z,18.52
2017-07-23T00:09:56.183Z,18.52
2017-07-23T00:10:51.188Z,18.49
2017-07-23T00:11:45.180Z,18.46
2017-07-23T00:12:40.272Z,18.46
2017-07-23T00:13:35.359Z,18.41
2017-07-23T00:14:35.305Z,18.39
2017-07-23T00:15:35.356Z,18.34
2017-07-23T00:16:24.372Z,18.32
2017-07-23T00:17:12.672Z,18.27
2017-07-23T00:18:07.449Z,18.30
2017-07-23T00:19:01.550Z,18.27
2017-07-23T00:19:49.512Z,18.26
2017-07-23T00:20:38.646Z,18.30
2017-07-23T00:21:32.682Z,18.24
2017-07-23T00:22:26.660Z,18.21
2017-07-23T00:23:14.752Z,18.19
2017-07-23T00:24:08.871Z,18.13
2017-07-23T00:25:03.755Z,18.10
2017-07-23T00:25:58.839Z,18.08
2017-07-23T00:26:47.869Z,18.03
2017-07-23T00:27:41.953Z,18.03
2017-07-23T00:28:36.976Z,18.02
2017-07-23T00:29:32.328Z,18.00
2017-07-23T00:30:26.078Z,17.98
2017-07-23T00:31:20.081Z,17.95
2017-07-23T00:32:15.477Z,17.91
2017-07-23T00:33:15.141Z,17.96
2017-07-23T00:34:04.242Z,17.98
2017-07-23T00:34:58.575Z,17.96
2017-07-23T00:35:46.282Z,17.96
2017-07-23T00:36:40.359Z,17.93
2017-07-23T00:37:35.460Z,17.91
2017-07-23T00:38:23.428Z,17.90
2017-07-23T00:39:12.504Z,17.90
2017-07-23T00:40:06.611Z,17.90
2017-07-23T00:40:54.592Z,17.92
2017-07-23T00:41:49.555Z,17.90
2017-07-23T00:42:38.684Z,17.91
2017-07-23T00:43:27.602Z,17.92
2017-07-23T00:44:21.788Z,17.91
2017-07-23T00:45:16.849Z,17.88
2017-07-23T00:46:11.876Z,17.88
2017-07-23T00:47:07.091Z,17.84
2017-07-23T00:47:55.801Z,17.86
2017-07-23T00:48:50.918Z,17.86
2017-07-23T00:49:51.964Z,17.84
2017-07-23T00:50:41.170Z,17.84
2017-07-23T00:51:30.328Z,17.79
2017-07-23T00:52:24.135Z,17.78
2017-07-23T00:53:24.125Z,17.78
2017-07-23T00:54:24.158Z,17.74
2017-07-23T00:55:12.192Z,17.70
2017-07-23T00:56:00.359Z,17.67
2017-07-23T00:57:00.259Z,17.61
2017-07-23T00:57:54.300Z,17.62
2017-07-23T00:58:49.372Z,17.57
2017-07-23T00:59:43.476Z,17.58
2017-07-23T01:00:32.455Z,17.54
2017-07-23T01:01:20.519Z,17.52
2017-07-23T01:02:08.531Z,17.49
2017-07-23T01:03:02.634Z,17.50
2017-07-23T01:03:50.705Z,17.46
2017-07-23T01:04:38.684Z,17.44
2017-07-23T01:05:33.751Z,17.43
2017-07-23T01:06:21.844Z,17.39
2017-07-23T01:07:09.811Z,17.36
2017-07-23T01:08:03.927Z,17.38
2017-07-23T01:08:52.852Z,17.34
2017-07-23T01:09:40.928Z,17.29
2017-07-23T01:10:34.979Z,17.26
2017-07-23T01:11:35.087Z,17.23
2017-07-23T01:12:29.029Z,17.21
2017-07-23T01:13:23.117Z,17.17
2017-07-23T01:14:18.160Z,17.17
2017-07-23T01:15:07.199Z,17.14
2017-07-23T01:16:01.272Z,17.18
2017-07-23T01:16:56.721Z,17.15
2017-07-23T01:17:51.525Z,17.18
2017-07-23T01:18:45.333Z,17.16
2017-07-23T01:19:39.389Z,17.17
2017-07-23T01:20:33.501Z,17.15
2017-07-23T01:21:27.425Z,17.18
2017-07-23T01:22:22.564Z,17.15
2017-07-23T01:23:11.607Z,17.13
2017-07-23T01:24:00.806Z,17.11
2017-07-23T01:24:48.699Z,17.12
2017-07-23T01:25:37.674Z,17.11
2017-07-23T01:26:26.708Z,17.11
2017-07-23T01:27:16.104Z,17.07
2017-07-23T01:28:03.963Z,17.10
2017-07-23T01:28:57.872Z,17.09
2017-07-23T01:29:46.033Z,17.08
2017-07-23T01:30:33.973Z,17.10
2017-07-23T01:31:22.126Z,17.07
2017-07-23T01:32:16.372Z,17.08
2017-07-23T01:33:16.093Z,17.08
2017-07-23T01:34:04.124Z,17.08
2017-07-23T01:34:53.190Z,17.07
2017-07-23T01:35:48.305Z,17.07
2017-07-23T01:36:42.229Z,17.05
2017-07-23T01:37:42.338Z,17.03
2017-07-23T01:38:36.281Z,17.04
2017-07-23T01:39:36.325Z,17.05
2017-07-23T01:40:31.377Z,17.04
2017-07-23T01:41:26.421Z,17.05
2017-07-23T01:42:26.453Z,17.02
2017-07-23T01:43:21.497Z,17.03
2017-07-23T01:44:16.584Z,17.00
2017-07-23T01:45:16.616Z,17.00
2017-07-23T01:46:16.662Z,17.00
2017-07-23T01:47:16.939Z,16.95
2017-07-23T01:48:11.794Z,16.99
2017-07-23T01:49:06.777Z,16.97
2017-07-23T01:50:07.947Z,16.96
2017-07-23T01:50:56.139Z,16.93
2017-07-23T01:51:50.081Z,16.92
2017-07-23T01:52:43.969Z,16.94
2017-07-23T01:53:32.182Z,16.92
2017-07-23T01:54:19.952Z,16.93
2017-07-23T01:55:08.021Z,16.92
2017-07-23T01:56:02.131Z,16.90
2017-07-23T01:56:50.092Z,16.89
2017-07-23T01:57:50.335Z,16.92
2017-07-23T01:58:45.263Z,16.92
2017-07-23T01:59:40.259Z,16.91
2017-07-23T02:00:40.303Z,16.90
2017-07-23T02:01:29.571Z,16.90
2017-07-23T02:02:29.377Z,16.94
2017-07-23T02:03:18.413Z,16.93
2017-07-23T02:04:12.430Z,16.90
2017-07-23T02:05:07.559Z,16.90
2017-07-23T02:06:01.525Z,16.88
2017-07-23T02:06:50.607Z,16.86
2017-07-23T02:07:38.695Z,16.86
2017-07-23T02:08:26.703Z,16.86
2017-07-23T02:09:15.725Z,16.82
2017-07-23T02:10:03.708Z,16.78
2017-07-23T02:10:51.862Z,16.76
2017-07-23T02:11:45.823Z,16.72
2017-07-23T02:12:34.925Z,16.72
2017-07-23T02:13:34.886Z,16.68
2017-07-23T02:14:22.971Z,16.67
2017-07-23T02:15:16.971Z,16.63
2017-07-23T02:16:11.098Z,16.61
2017-07-23T02:17:12.084Z,16.58
2017-07-23T02:18:13.132Z,16.53
2017-07-23T02:19:08.292Z,16.51
2017-07-23T02:20:08.176Z,16.46
2017-07-23T02:21:08.256Z,16.40
2017-07-23T02:22:02.278Z,16.38
2017-07-23T02:23:03.374Z,16.38
2017-07-23T02:23:58.392Z,16.44
2017-07-23T02:24:52.516Z,16.43
2017-07-23T02:25:47.469Z,16.45
2017-07-23T02:26:36.749Z,16.42
2017-07-23T02:27:24.770Z,16.41
2017-07-23T02:28:18.550Z,16.48
2017-07-23T02:29:13.608Z,16.52
2017-07-23T02:30:08.659Z,16.54
2017-07-23T02:31:02.644Z,16.56
2017-07-23T02:32:02.854Z,16.54
2017-07-23T02:32:56.745Z,16.57
2017-07-23T02:33:51.824Z,16.60
2017-07-23T02:34:46.830Z,16.62
2017-07-23T02:35:46.896Z,16.62
2017-07-23T02:36:41.899Z,16.63
2017-07-23T02:37:36.899Z,16.62
2017-07-23T02:38:36.956Z,16.64
2017-07-23T02:39:32.060Z,16.64
2017-07-23T02:40:27.054Z,16.67
2017-07-23T02:41:28.162Z,16.67
2017-07-23T02:42:28.142Z,16.68
2017-07-23T02:43:23.145Z,16.72
2017-07-23T02:44:23.167Z,16.73
2017-07-23T02:45:17.262Z,16.72
2017-07-23T02:46:17.256Z,16.74
2017-07-23T02:47:06.584Z,16.70
2017-07-23T02:48:00.323Z,16.71
2017-07-23T02:48:49.459Z,16.68
2017-07-23T02:49:49.398Z,16.66
2017-07-23T02:50:43.502Z,16.62
2017-07-23T02:51:37.660Z,16.54
2017-07-23T02:52:31.625Z,16.50
2017-07-23T02:53:26.623Z,16.47
2017-07-23T02:54:15.745Z,16.44
2017-07-23T02:55:09.709Z,16.43
2017-07-23T02:55:57.738Z,16.40
2017-07-23T02:56:51.860Z,16.39
2017-07-23T02:57:45.856Z,16.39
2017-07-23T02:58:45.945Z,16.42
2017-07-23T02:59:40.833Z,16.41
2017-07-23T03:00:35.942Z,16.42
2017-07-23T03:01:30.011Z,16.44
2017-07-23T03:02:24.018Z,16.47
2017-07-23T03:03:25.026Z,16.49
2017-07-23T03:04:20.018Z,16.48
2017-07-23T03:05:15.088Z,16.50
2017-07-23T03:06:03.156Z,16.45
2017-07-23T03:06:51.177Z,16.44
2017-07-23T03:07:40.233Z,16.44
2017-07-23T03:08:34.351Z,16.43
2017-07-23T03:09:28.293Z,16.43
2017-07-23T03:10:22.386Z,16.40
2017-07-23T03:11:16.426Z,16.37
2017-07-23T03:12:11.720Z,16.38
2017-07-23T03:13:05.421Z,16.40
2017-07-23T03:13:54.559Z,16.46
2017-07-23T03:14:43.523Z,16.48
2017-07-23T03:15:38.539Z,16.52
2017-07-23T03:16:38.952Z,16.52
2017-07-23T03:17:33.730Z,16.57
2017-07-23T03:18:28.752Z,16.59
2017-07-23T03:19:29.792Z,16.57
2017-07-23T03:20:17.788Z,16.56
2017-07-23T03:21:05.829Z,16.58
2017-07-23T03:21:54.843Z,16.58
2017-07-23T03:22:42.997Z,16.56
2017-07-23T03:23:30.999Z,16.58
2017-07-23T03:24:20.060Z,16.56
2017-07-23T03:25:08.135Z,16.59
2017-07-23T03:25:56.100Z,16.59
2017-07-23T03:26:57.211Z,16.61
2017-07-23T03:27:51.135Z,16.61
2017-07-23T03:28:51.242Z,16.60
2017-07-23T03:29:46.241Z,16.58
2017-07-23T03:30:41.367Z,16.58
2017-07-23T03:31:42.338Z,16.58
2017-07-23T03:32:42.366Z,16.62
2017-07-23T03:33:36.453Z,16.64
2017-07-23T03:34:30.511Z,16.62
2017-07-23T03:35:19.559Z,16.62
2017-07-23T03:36:14.536Z,16.64
2017-07-23T03:37:14.533Z,16.63
2017-07-23T03:38:08.649Z,16.63
2017-07-23T03:39:02.679Z,16.63
2017-07-23T03:39:57.714Z,16.62
2017-07-23T03:40:51.949Z,16.60
2017-07-23T03:41:41.084Z,16.51
2017-07-23T03:42:40.794Z,16.52
2017-07-23T03:43:35.835Z,16.48
2017-07-23T03:44:23.953Z,16.44
2017-07-23T03:45:11.954Z,16.42
2017-07-23T03:46:00.981Z,16.39
2017-07-23T03:46:49.136Z,16.38
2017-07-23T03:47:38.127Z,16.36
2017-07-23T03:48:26.101Z,16.34
2017-07-23T03:49:14.190Z,16.34
2017-07-23T03:50:02.309Z,16.30
2017-07-23T03:50:50.285Z,16.32
2017-07-23T03:51:39.512Z,16.33
2017-07-23T03:52:27.424Z,16.34
2017-07-23T03:53:33.393Z,16.35
2017-07-23T03:54:28.372Z,16.38
2017-07-23T03:55:23.514Z,16.37
2017-07-23T03:56:24.506Z,16.36
2017-07-23T03:57:24.548Z,16.40
2017-07-23T03:58:19.670Z,16.39
2017-07-23T03:59:08.653Z,16.40
2017-07-23T03:59:57.719Z,16.42
2017-07-23T04:00:45.745Z,16.44
2017-07-23T04:01:40.024Z,16.47
2017-07-23T04:02:27.885Z,16.46
2017-07-23T04:03:16.854Z,16.49
2017-07-23T04:04:12.154Z,16.52
2017-07-23T04:05:11.996Z,16.53
2017-07-23T04:05:59.996Z,16.52
2017-07-23T04:06:54.340Z,16.62
2017-07-23T04:07:49.327Z,16.58
2017-07-23T04:08:37.164Z,16.58
2017-07-23T04:09:37.173Z,16.54
2017-07-23T04:10:31.159Z,16.62
2017-07-23T04:11:31.238Z,16.59
2017-07-23T04:12:25.301Z,16.61
2017-07-23T04:13:14.326Z,16.68
2017-07-23T04:14:08.363Z,16.68
2017-07-23T04:14:56.469Z,16.68
2017-07-23T04:15:50.399Z,16.70
2017-07-23T04:16:45.391Z,16.68
2017-07-23T04:17:33.526Z,16.68
2017-07-23T04:18:28.590Z,16.66
2017-07-23T04:19:23.634Z,16.72
2017-07-23T04:20:18.756Z,16.75
2017-07-23T04:21:13.712Z,16.73
2017-07-23T04:22:01.773Z,16.72
2017-07-23T04:22:50.933Z,16.65
2017-07-23T04:23:44.884Z,16.68
2017-07-23T04:24:33.116Z,16.70
2017-07-23T04:25:27.957Z,16.62
2017-07-23T04:26:28.935Z,16.68
2017-07-23T04:27:29.915Z,16.62
2017-07-23T04:28:24.043Z,16.59
2017-07-23T04:29:12.061Z,16.60
2017-07-23T04:30:00.168Z,16.60
2017-07-23T04:30:55.481Z,16.62
2017-07-23T04:31:50.154Z,16.61
2017-07-23T04:32:45.220Z,16.62
2017-07-23T04:33:45.246Z,16.60
2017-07-23T04:34:40.388Z,16.60
2017-07-23T04:35:34.381Z,16.62
2017-07-23T04:36:34.729Z,16.58
2017-07-23T04:37:29.451Z,16.55
2017-07-23T04:38:17.545Z,16.54
2017-07-23T04:39:12.534Z,16.55
2017-07-23T04:40:12.561Z,16.56
2017-07-23T04:41:06.665Z,16.52
2017-07-23T04:42:00.688Z,16.54
2017-07-23T04:42:49.706Z,16.49
2017-07-23T04:43:38.743Z,16.51
2017-07-23T04:44:33.814Z,16.47
2017-07-23T04:45:22.850Z,16.46
2017-07-23T04:46:16.855Z,16.46
2017-07-23T04:47:10.916Z,16.43
2017-07-23T04:48:04.932Z,16.42
2017-07-23T04:48:59.907Z,16.42
2017-07-23T04:49:54.989Z,16.40
2017-07-23T04:50:50.224Z,16.46
2017-07-23T04:51:44.094Z,16.40
2017-07-23T04:52:39.162Z,16.45
2017-07-23T04:53:39.166Z,16.48
2017-07-23T04:54:34.304Z,16.46
2017-07-23T04:55:34.230Z,16.50
2017-07-23T04:56:29.353Z,16.49
2017-07-23T04:57:24.278Z,16.52
2017-07-23T04:58:18.392Z,16.47
2017-07-23T04:59:19.463Z,16.49
2017-07-23T05:00:14.509Z,16.44
2017-07-23T05:01:14.491Z,16.52
2017-07-23T05:02:14.617Z,16.53
2017-07-23T05:03:14.567Z,16.55
2017-07-23T05:04:14.617Z,16.56
2017-07-23T05:05:14.572Z,16.59
2017-07-23T05:06:08.604Z,16.58
2017-07-23T05:07:03.772Z,16.58
2017-07-23T05:07:57.728Z,16.58
2017-07-23T05:08:52.822Z,16.60
2017-07-23T05:09:52.857Z,16.58
2017-07-23T05:10:41.855Z,16.58
2017-07-23T05:11:36.241Z,16.61
2017-07-23T05:12:35.996Z,16.60
2017-07-23T05:13:30.947Z,16.60
2017-07-23T05:14:20.038Z,16.53
2017-07-23T05:15:20.114Z,16.60
2017-07-23T05:16:20.131Z,16.64
2017-07-23T05:17:14.136Z,16.58
2017-07-23T05:18:03.313Z,16.61
2017-07-23T05:18:52.516Z,16.61
2017-07-23T05:19:40.364Z,16.62
2017-07-23T05:20:28.373Z,16.66
2017-07-23T05:21:23.352Z,16.66
2017-07-23T05:22:17.408Z,16.68
2017-07-23T05:23:06.458Z,16.64
2017-07-23T05:24:06.497Z,16.66
2017-07-23T05:25:01.581Z,16.72
2017-07-23T05:25:55.656Z,16.68
2017-07-23T05:26:55.640Z,16.75
2017-07-23T05:27:49.702Z,16.77
2017-07-23T05:28:43.781Z,16.80
2017-07-23T05:29:38.809Z,16.78
2017-07-23T05:30:32.767Z,16.82
2017-07-23T05:31:26.879Z,16.86
2017-07-23T05:32:21.882Z,16.82
2017-07-23T05:33:21.911Z,16.88
2017-07-23T05:34:11.069Z,16.92
2017-07-23T05:35:05.071Z,17.04
2017-07-23T05:35:54.019Z,17.05
2017-07-23T05:36:48.103Z,17.04
2017-07-23T05:37:42.096Z,17.04
2017-07-23T05:38:30.287Z,17.00
2017-07-23T05:39:19.242Z,16.93
2017-07-23T05:40:13.291Z,16.73
2017-07-23T05:41:01.282Z,16.76
2017-07-23T05:42:01.340Z,16.76
2017-07-23T05:42:56.384Z,16.88
2017-07-23T05:43:56.449Z,16.81
2017-07-23T05:44:56.428Z,16.84
2017-07-23T05:45:45.465Z,16.95
2017-07-23T05:46:34.757Z,17.01
2017-07-23T05:47:34.590Z,17.09
2017-07-23T05:48:29.627Z,17.21
2017-07-23T05:49:29.644Z,17.27
2017-07-23T05:50:24.682Z,17.22
2017-07-23T05:51:12.700Z,17.43
2017-07-23T05:52:01.875Z,17.76
2017-07-23T05:52:51.080Z,18.08
2017-07-23T05:53:50.960Z,18.34
2017-07-23T05:54:44.966Z,18.19
2017-07-23T05:55:45.247Z,17.78
2017-07-23T05:56:39.203Z,17.46
2017-07-23T05:57:33.109Z,17.37
2017-07-23T05:58:27.160Z,17.54
2017-07-23T05:59:15.114Z,17.81
2017-07-23T06:00:09.231Z,18.02
2017-07-23T06:01:10.193Z,18.14
2017-07-23T06:02:04.339Z,17.94
2017-07-23T06:02:58.408Z,18.01
2017-07-23T06:03:58.525Z,18.18
2017-07-23T06:04:52.432Z,18.53
2017-07-23T06:05:53.460Z,18.61
2017-07-23T06:06:53.654Z,18.59
2017-07-23T06:07:48.658Z,18.62
2017-07-23T06:08:37.603Z,18.79
2017-07-23T06:09:31.888Z,18.87
2017-07-23T06:10:25.943Z,18.79
2017-07-23T06:11:19.908Z,18.90
2017-07-23T06:12:08.768Z,19.19
2017-07-23T06:13:08.939Z,19.17
2017-07-23T06:14:02.918Z,19.08
2017-07-23T06:14:57.978Z,19.36
2017-07-23T06:15:47.065Z,19.32
2017-07-23T06:16:41.336Z,19.39
2017-07-23T06:17:35.115Z,19.36
2017-07-23T06:18:30.185Z,19.46
2017-07-23T06:19:24.259Z,19.79
2017-07-23T06:20:24.363Z,20.23
2017-07-23T06:21:13.370Z,20.42
2017-07-23T06:22:02.437Z,20.52
2017-07-23T06:22:57.429Z,20.58
2017-07-23T06:23:51.589Z,20.86
2017-07-23T06:24:45.610Z,20.69
2017-07-23T06:25:39.827Z,20.59
2017-07-23T06:26:34.642Z,20.78
2017-07-23T06:27:29.828Z,21.06
2017-07-23T06:28:30.021Z,20.66
2017-07-23T06:29:18.015Z,20.49
2017-07-23T06:30:07.165Z,20.33
2017-07-23T06:31:02.111Z,20.06
2017-07-23T06:31:57.138Z,20.36
2017-07-23T06:32:57.171Z,20.10
2017-07-23T06:33:57.099Z,20.20
2017-07-23T06:34:46.107Z,20.57
2017-07-23T06:35:40.417Z,20.75
2017-07-23T06:36:34.353Z,20.89
2017-07-23T06:37:29.339Z,21.18
2017-07-23T06:38:18.572Z,21.42
2017-07-23T06:39:12.524Z,21.44
2017-07-23T06:40:07.655Z,21.18
2017-07-23T06:40:56.536Z,20.62
2017-07-23T06:41:50.822Z,20.48
2017-07-23T06:42:38.888Z,20.64
2017-07-23T06:43:32.885Z,20.33
2017-07-23T06:44:27.048Z,20.37
2017-07-23T06:45:21.123Z,20.35
2017-07-23T06:46:15.193Z,20.51
2017-07-23T06:47:09.242Z,20.12
2017-07-23T06:48:03.113Z,20.44
2017-07-23T06:49:09.283Z,20.09
2017-07-23T06:50:04.293Z,19.92
2017-07-23T06:50:58.419Z,19.47
2017-07-23T06:51:47.449Z,19.68
2017-07-23T06:52:47.518Z,19.60
2017-07-23T06:53:41.516Z,19.46
2017-07-23T06:54:35.701Z,19.70
2017-07-23T06:55:24.703Z,19.63
2017-07-23T06:56:12.676Z,19.23
2017-07-23T06:57:07.788Z,19.63
2017-07-23T06:57:56.931Z,19.10
2017-07-23T06:58:56.908Z,19.07
2017-07-23T06:59:56.913Z,19.17
2017-07-23T07:00:45.989Z,19.28
2017-07-23T07:01:41.139Z,19.82
2017-07-23T07:02:35.277Z,20.36
2017-07-23T07:03:35.122Z,19.86
2017-07-23T07:04:30.185Z,19.14
2017-07-23T07:05:18.370Z,19.36
2017-07-23T07:06:13.336Z,19.88
2017-07-23T07:07:13.378Z,19.34
2017-07-23T07:08:07.393Z,19.36
2017-07-23T07:09:07.522Z,19.32
2017-07-23T07:09:56.503Z,19.60
2017-07-23T07:10:50.527Z,19.99
2017-07-23T07:11:44.642Z,20.26
2017-07-23T07:12:38.671Z,20.01
2017-07-23T07:13:32.851Z,19.98
2017-07-23T07:14:26.860Z,19.99
2017-07-23T07:15:21.946Z,20.24
2017-07-23T07:16:09.995Z,20.32
2017-07-23T07:16:58.942Z,20.40
2017-07-23T07:17:53.144Z,20.76
2017-07-23T07:18:59.166Z,21.24
2017-07-23T07:19:48.305Z,21.73
2017-07-23T07:20:43.237Z,22.10
2017-07-23T07:21:32.327Z,21.75
2017-07-23T07:22:32.383Z,21.36
2017-07-23T07:23:26.394Z,20.91
2017-07-23T07:24:20.510Z,21.06
2017-07-23T07:25:15.621Z,21.49
2017-07-23T07:26:09.640Z,22.14
2017-07-23T07:26:58.686Z,22.73
2017-07-23T07:27:53.753Z,23.34
2017-07-23T07:28:47.776Z,22.57
2017-07-23T07:29:41.816Z,21.64
2017-07-23T07:30:35.990Z,22.00
2017-07-23T07:31:36.014Z,20.78
2017-07-23T07:32:25.078Z,20.61
2017-07-23T07:33:13.141Z,20.56
2017-07-23T07:34:08.190Z,20.62
2017-07-23T07:35:08.239Z,21.07
2017-07-23T07:35:57.382Z,21.72
2017-07-23T07:36:51.386Z,21.89
2017-07-23T07:37:45.350Z,20.87
2017-07-23T07:38:39.419Z,19.86
2017-07-23T07:39:33.494Z,19.32
2017-07-23T07:40:22.564Z,19.20
2017-07-23T07:41:28.615Z,18.82
2017-07-23T07:42:22.671Z,18.67
2017-07-23T07:43:11.878Z,18.92
2017-07-23T07:44:06.884Z,19.48
2017-07-23T07:45:06.840Z,20.19
2017-07-23T07:45:54.938Z,20.88
2017-07-23T07:46:44.102Z,21.74
2017-07-23T07:47:44.129Z,22.42
2017-07-23T07:48:44.187Z,23.65
2017-07-23T07:49:38.208Z,23.10
2017-07-23T07:50:27.295Z,22.84
2017-07-23T07:51:15.369Z,22.16
2017-07-23T07:52:15.398Z,20.69
2017-07-23T07:53:09.504Z,19.99
2017-07-23T07:54:03.560Z,19.65
2017-07-23T07:55:03.592Z,18.84
2017-07-23T07:55:52.682Z,18.58
2017-07-23T07:56:40.776Z,18.21
2017-07-23T07:57:34.736Z,17.88
2017-07-23T07:58:29.947Z,17.41
2017-07-23T07:59:24.875Z,17.06
2017-07-23T08:00:14.002Z,16.86
2017-07-23T08:01:08.982Z,17.19
2017-07-23T08:02:09.063Z,17.14
2017-07-23T08:03:03.130Z,16.84
2017-07-23T08:03:57.151Z,16.76
2017-07-23T08:04:51.207Z,16.48
2017-07-23T08:05:45.316Z,16.41
2017-07-23T08:06:40.406Z,16.42
2017-07-23T08:07:40.366Z,16.82
2017-07-23T08:08:35.511Z,16.25
2017-07-23T08:09:30.535Z,16.40
2017-07-23T08:10:24.544Z,16.57
2017-07-23T08:11:18.684Z,16.36
2017-07-23T08:12:12.714Z,16.15
2017-07-23T08:13:07.708Z,16.64
2017-07-23T08:14:01.806Z,16.67
2017-07-23T08:14:56.781Z,16.96
2017-07-23T08:15:50.909Z,16.67
2017-07-23T08:16:50.982Z,17.26
2017-07-23T08:17:44.989Z,17.58
2017-07-23T08:18:39.085Z,17.76
2017-07-23T08:19:40.118Z,18.00
2017-07-23T08:20:41.151Z,18.05
2017-07-23T08:21:41.279Z,17.84
2017-07-23T08:22:36.283Z,17.36
2017-07-23T08:23:31.337Z,16.99
2017-07-23T08:24:31.395Z,16.83
2017-07-23T08:25:25.493Z,16.43
2017-07-23T08:26:20.392Z,16.26
2017-07-23T08:27:08.548Z,16.46
2017-07-23T08:28:02.616Z,16.91
2017-07-23T08:28:57.576Z,17.30
2017-07-23T08:29:51.746Z,17.76
2017-07-23T08:30:45.783Z,18.64
2017-07-23T08:31:34.768Z,19.37
2017-07-23T08:32:34.857Z,20.40
2017-07-23T08:33:29.903Z,20.42
2017-07-23T08:34:18.943Z,20.60
2017-07-23T08:35:13.041Z,21.12
2017-07-23T08:36:13.094Z,21.96
2017-07-23T08:37:07.103Z,22.51
2017-07-23T08:38:07.203Z,23.00
2017-07-23T08:38:56.209Z,22.56
2017-07-23T08:39:45.249Z,22.69
2017-07-23T08:40:39.344Z,22.98
2017-07-23T08:41:33.443Z,23.45
2017-07-23T08:42:28.492Z,23.11
2017-07-23T08:43:28.537Z,23.71
2017-07-23T08:44:22.646Z,23.42
2017-07-23T08:45:11.560Z,22.57
2017-07-23T08:46:05.644Z,22.12
2017-07-23T08:47:05.782Z,22.02
2017-07-23T08:47:54.836Z,22.18
2017-07-23T08:48:54.859Z,23.23
2017-07-23T08:49:43.911Z,23.44
2017-07-23T08:50:32.929Z,23.36
2017-07-23T08:51:28.024Z,22.48
2017-07-23T08:52:22.091Z,20.96
2017-07-23T08:53:17.138Z,20.22
2017-07-23T08:54:17.221Z,19.52
2017-07-23T08:55:12.191Z,19.42
2017-07-23T08:56:06.267Z,18.87
2017-07-23T08:57:00.443Z,18.32
2017-07-23T08:57:55.407Z,18.13
2017-07-23T08:58:50.475Z,18.07
2017-07-23T08:59:45.524Z,18.22
2017-07-23T09:00:39.640Z,17.94
2017-07-23T09:01:39.625Z,17.68
2017-07-23T09:02:33.755Z,17.21
2017-07-23T09:03:22.817Z,16.94
2017-07-23T09:04:22.854Z,16.59
2017-07-23T09:05:16.831Z,16.37
2017-07-23T09:06:16.982Z,16.20
2017-07-23T09:07:11.010Z,16.34
2017-07-23T09:08:00.048Z,16.71
2017-07-23T09:09:00.182Z,16.79
2017-07-23T09:10:00.087Z,16.96
2017-07-23T09:11:00.173Z,16.86
2017-07-23T09:11:54.300Z,16.72
2017-07-23T09:12:48.311Z,16.50
2017-07-23T09:13:37.363Z,16.38
2017-07-23T09:14:31.437Z,16.24
2017-07-23T09:15:31.455Z,16.14
2017-07-23T09:16:26.517Z,16.03
2017-07-23T09:17:20.579Z,16.16
2017-07-23T09:18:08.611Z,16.62
2017-07-23T09:19:03.601Z,16.88
2017-07-23T09:19:58.680Z,16.88
2017-07-23T09:20:53.736Z,16.80
2017-07-23T09:21:47.807Z,16.76
2017-07-23T09:22:41.892Z,16.64
2017-07-23T09:23:30.851Z,16.38
2017-07-23T09:24:25.888Z,16.58
2017-07-23T09:25:21.165Z,17.12
2017-07-23T09:26:15.031Z,17.86
2017-07-23T09:27:15.141Z,18.66
2017-07-23T09:28:04.199Z,19.08
2017-07-23T09:28:58.248Z,19.62
2017-07-23T09:29:53.186Z,20.01
2017-07-23T09:30:47.367Z,19.87
2017-07-23T09:31:41.534Z,19.62
2017-07-23T09:32:36.520Z,18.74
2017-07-23T09:33:36.614Z,17.82
2017-07-23T09:34:31.619Z,17.30
2017-07-23T09:35:20.617Z,17.02
2017-07-23T09:36:15.750Z,16.81
2017-07-23T09:37:15.675Z,16.63
2017-07-23T09:38:03.803Z,16.55
2017-07-23T09:38:51.865Z,16.35
2017-07-23T09:39:46.615Z,16.17
2017-07-23T09:40:35.740Z,15.94
2017-07-23T09:41:30.025Z,15.92
2017-07-23T09:42:25.058Z,15.91
2017-07-23T09:43:19.970Z,16.05
2017-07-23T09:44:14.117Z,16.20
2017-07-23T09:45:02.157Z,16.24
2017-07-23T09:46:02.221Z,16.70
2017-07-23T09:46:56.503Z,16.49
2017-07-23T09:47:51.210Z,16.40
2017-07-23T09:48:45.357Z,16.67
2017-07-23T09:49:45.396Z,16.41
2017-07-23T09:50:39.491Z,16.37
2017-07-23T09:51:39.544Z,16.34
2017-07-23T09:52:34.575Z,16.34
2017-07-23T09:53:22.600Z,16.15
2017-07-23T09:54:22.537Z,16.22
2017-07-23T09:55:17.674Z,16.16
2017-07-23T09:56:11.794Z,16.18
2017-07-23T09:57:00.675Z,16.16
2017-07-23T09:58:00.637Z,16.00
2017-07-23T09:58:54.747Z,16.09
2017-07-23T09:59:48.855Z,16.05
2017-07-23T10:00:43.803Z,15.96
2017-07-23T10:01:37.822Z,15.79
2017-07-23T10:02:32.929Z,15.70
2017-07-23T10:03:28.275Z,15.69
2017-07-23T10:04:21.971Z,16.00
2017-07-23T10:05:16.105Z,16.47
2017-07-23T10:06:16.039Z,17.14
2017-07-23T10:07:10.386Z,17.64
2017-07-23T10:08:10.396Z,18.07
2017-07-23T10:09:04.471Z,18.59
2017-07-23T10:09:59.524Z,19.19
2017-07-23T10:10:53.608Z,19.28
2017-07-23T10:11:48.649Z,19.25
2017-07-23T10:12:42.671Z,19.25
2017-07-23T10:13:36.644Z,19.14
2017-07-23T10:14:31.803Z,18.79
2017-07-23T10:15:25.873Z,19.09
2017-07-23T10:16:19.954Z,18.56
2017-07-23T10:17:19.942Z,18.02
2017-07-23T10:18:13.979Z,17.77
2017-07-23T10:19:02.066Z,17.64
2017-07-23T10:20:03.286Z,17.22
2017-07-23T10:20:52.196Z,16.95
2017-07-23T10:21:47.198Z,16.77
2017-07-23T10:22:41.319Z,16.68
2017-07-23T10:23:36.336Z,16.62
2017-07-23T10:24:31.341Z,16.58
2017-07-23T10:25:26.406Z,16.68
2017-07-23T10:26:21.512Z,16.50
2017-07-23T10:27:15.510Z,16.21
2017-07-23T10:28:09.511Z,16.15
2017-07-23T10:29:04.583Z,16.28
2017-07-23T10:29:58.663Z,16.22
2017-07-23T10:30:46.812Z,16.32
2017-07-23T10:31:41.706Z,16.06
2017-07-23T10:32:36.793Z,16.08
2017-07-23T10:33:30.819Z,16.28
2017-07-23T10:34:24.937Z,16.03
2017-07-23T10:35:19.887Z,15.83
2017-07-23T10:36:14.052Z,15.86
2017-07-23T10:37:13.999Z,15.76
2017-07-23T10:38:08.071Z,15.80
2017-07-23T10:39:08.123Z,15.98
2017-07-23T10:40:02.121Z,16.12
2017-07-23T10:41:02.203Z,15.95
2017-07-23T10:41:56.315Z,16.10
2017-07-23T10:42:56.255Z,16.28
2017-07-23T10:43:45.385Z,16.15
2017-07-23T10:44:40.427Z,16.47
2017-07-23T10:45:40.456Z,16.88
2017-07-23T10:46:35.565Z,16.61
2017-07-23T10:47:23.568Z,16.66
2017-07-23T10:48:17.597Z,16.63
2017-07-23T10:49:12.645Z,16.76
2017-07-23T10:50:06.699Z,16.85
2017-07-23T10:51:06.713Z,17.02
2017-07-23T10:52:01.742Z,17.13
2017-07-23T10:53:01.837Z,17.19
2017-07-23T10:54:02.879Z,17.24
2017-07-23T10:55:03.890Z,17.38
2017-07-23T10:56:04.930Z,17.29
2017-07-23T10:56:58.999Z,17.12
2017-07-23T10:57:53.064Z,17.08
2017-07-23T10:58:53.108Z,17.05
2017-07-23T10:59:41.083Z,17.16
2017-07-23T11:00:35.283Z,17.24
2017-07-23T11:01:29.188Z,17.28
2017-07-23T11:02:23.285Z,18.03
2017-07-23T11:03:12.254Z,18.79
2017-07-23T11:04:01.606Z,19.35
2017-07-23T11:05:07.461Z,20.26
2017-07-23T11:06:02.487Z,20.74
2017-07-23T11:06:56.581Z,20.68
2017-07-23T11:07:57.011Z,20.86
2017-07-23T11:08:45.593Z,20.56
2017-07-23T11:09:40.684Z,19.98
2017-07-23T11:10:40.741Z,19.42
2017-07-23T11:11:34.736Z,18.50
2017-07-23T11:12:28.750Z,17.91
2017-07-23T11:13:28.916Z,17.75
2017-07-23T11:14:23.866Z,17.70
2017-07-23T11:15:18.006Z,17.38
2017-07-23T11:16:13.025Z,17.00
2017-07-23T11:17:07.095Z,17.07
2017-07-23T11:18:01.153Z,16.76
2017-07-23T11:19:01.161Z,17.16
2017-07-23T11:19:55.191Z,16.86
2017-07-23T11:20:49.294Z,16.71
2017-07-23T11:21:43.374Z,16.34
2017-07-23T11:22:38.452Z,16.84
2017-07-23T11:23:39.416Z,17.20
2017-07-23T11:24:28.447Z,17.28
2017-07-23T11:25:28.525Z,16.81
2017-07-23T11:26:17.567Z,16.91
2017-07-23T11:27:17.612Z,17.06
2017-07-23T11:28:11.629Z,17.34
2017-07-23T11:29:05.718Z,17.55
2017-07-23T11:30:05.775Z,17.51
2017-07-23T11:31:00.834Z,17.74
2017-07-23T11:32:00.849Z,17.73
2017-07-23T11:32:54.869Z,17.67
2017-07-23T11:33:54.961Z,18.38
2017-07-23T11:34:43.944Z,17.86
2017-07-23T11:35:39.095Z,17.90
2017-07-23T11:36:33.019Z,18.79
2017-07-23T11:37:33.225Z,18.99